createdAt,value
2023-06-04T00:07:03.953Z,97586.06
2023-06-04T00:17:06.469Z,97580.72
2023-06-04T00:27:09.848Z,97579.84
2023-06-04T00:37:12.167Z,97577.50
2023-06-04T00:47:17.992Z,97578.13
2023-06-04T00:57:20.378Z,97584.22
2023-06-04T01:07:23.153Z,97589.22
2023-06-04T01:17:39.161Z,97583.91
2023-06-04T01:27:41.709Z,97589.72
2023-06-04T01:37:43.993Z,97595.53
2023-06-04T01:47:46.323Z,97590.16
2023-06-04T01:57:51.891Z,97591.87
2023-06-04T02:07:54.144Z,97606.56
2023-06-04T02:18:00.511Z,97600.72
2023-06-04T02:28:02.870Z,97598.09
2023-06-04T02:38:05.267Z,97607.63
2023-06-04T02:48:07.597Z,97606.88
2023-06-04T02:58:10.377Z,97616.66
2023-06-04T03:08:12.584Z,97622.69
2023-06-04T03:18:14.939Z,97621.34
2023-06-04T03:28:17.101Z,97636.28
2023-06-04T03:38:19.707Z,97642.00
2023-06-04T03:48:21.875Z,97633.63
2023-06-04T03:58:25.493Z,97648.53
2023-06-04T04:08:31.660Z,97661.84
2023-06-04T04:18:37.478Z,97667.78
2023-06-04T04:28:39.877Z,97667.75
2023-06-04T04:38:42.138Z,97676.37
2023-06-04T04:48:44.524Z,97681.75
2023-06-04T04:58:46.781Z,97684.37
2023-06-04T05:08:49.101Z,97679.28
2023-06-04T05:18:53.153Z,97692.41
2023-06-04T05:28:56.674Z,97699.84
2023-06-04T05:39:01.437Z,97708.91
2023-06-04T05:49:03.937Z,97722.22
2023-06-04T05:59:06.691Z,97709.66
2023-06-04T06:09:10.462Z,97716.78
2023-06-04T06:19:12.771Z,97718.84
2023-06-04T06:29:15.167Z,97725.97
2023-06-04T06:39:17.932Z,97733.56
2023-06-04T06:49:20.480Z,97744.78
2023-06-04T06:59:23.361Z,97747.06
2023-06-04T07:09:25.843Z,97751.59
2023-06-04T07:19:28.133Z,97744.28
2023-06-04T07:29:30.951Z,97759.31
2023-06-04T07:39:33.282Z,97754.19
2023-06-04T07:49:39.969Z,97750.50
2023-06-04T07:59:46.870Z,97742.53
2023-06-04T08:09:49.573Z,97743.03
2023-06-04T08:19:52.159Z,97756.91
2023-06-04T08:30:14.900Z,97757.72
2023-06-04T08:40:37.673Z,97748.84
2023-06-04T08:50:42.040Z,97741.66
2023-06-04T09:00:44.927Z,97756.56
2023-06-04T09:10:50.881Z,97752.00
2023-06-04T09:21:04.224Z,97753.37
2023-06-04T09:31:09.770Z,97752.78
2023-06-04T09:41:13.116Z,97747.84
2023-06-04T09:51:22.517Z,97747.91
2023-06-04T10:01:28.207Z,97736.16
2023-06-04T10:11:37.608Z,97747.31
2023-06-04T10:21:40.527Z,97731.38
2023-06-04T10:31:44.383Z,97720.91
2023-06-04T10:41:48.455Z,97721.84
2023-06-04T10:51:53.298Z,97733.88
2023-06-04T11:02:07.080Z,97729.50
2023-06-04T11:12:09.805Z,97726.38
2023-06-04T11:22:13.771Z,97720.59
2023-06-04T11:32:23.409Z,97713.87
2023-06-04T11:42:26.604Z,97715.25
2023-06-04T11:52:29.749Z,97710.03
2023-06-04T12:02:32.967Z,97699.91
2023-06-04T12:12:36.907Z,97693.53
2023-06-04T12:22:49.259Z,97694.38
2023-06-04T12:32:52.915Z,97689.78
2023-06-04T12:42:56.517Z,97682.00
2023-06-04T12:53:00.219Z,97692.47
2023-06-04T13:03:03.474Z,97680.56
2023-06-04T13:13:06.820Z,97684.56
2023-06-04T13:23:10.584Z,97676.59
2023-06-04T13:33:15.016Z,97672.22
2023-06-04T13:43:19.495Z,97657.50
2023-06-04T13:53:23.105Z,97662.28
2023-06-04T14:03:26.590Z,97655.84
2023-06-04T14:13:29.961Z,97655.69
2023-06-04T14:23:33.312Z,97649.91
2023-06-04T14:33:39.877Z,97638.59
2023-06-04T14:43:42.780Z,97631.00
2023-06-04T14:53:45.955Z,97618.06
2023-06-04T15:03:49.624Z,97601.38
2023-06-04T15:13:54.639Z,97603.66
2023-06-04T15:23:58.214Z,97595.75
2023-06-04T15:34:01.606Z,97618.03
2023-06-04T15:44:05.718Z,97609.22
2023-06-04T15:54:09.969Z,97606.09
2023-06-04T16:04:16.670Z,97624.47
2023-06-04T16:14:20.658Z,97612.78
2023-06-04T16:24:23.472Z,97601.25
2023-06-04T16:34:27.424Z,97595.62
2023-06-04T16:44:31.224Z,97615.47
2023-06-04T16:54:37.007Z,97647.31
2023-06-04T17:04:40.554Z,97645.06
2023-06-04T17:14:43.731Z,97642.56
2023-06-04T17:24:46.483Z,97642.34
2023-06-04T17:34:49.883Z,97642.34
2023-06-04T17:44:52.874Z,97642.56
2023-06-04T17:54:56.448Z,97637.50
2023-06-04T18:04:59.234Z,97651.81
2023-06-04T18:15:02.045Z,97656.00
2023-06-04T18:25:04.707Z,97643.88
2023-06-04T18:35:08.694Z,97639.78
2023-06-04T18:45:12.394Z,97630.69
2023-06-04T18:55:15.188Z,97634.22
2023-06-04T19:05:19.104Z,97617.69
2023-06-04T19:15:22.458Z,97619.72
2023-06-04T19:25:25.562Z,97627.62
2023-06-04T19:35:29.284Z,97625.13
2023-06-04T19:45:32.573Z,97629.44
2023-06-04T19:55:35.667Z,97654.31
2023-06-04T20:05:39.283Z,97662.84
2023-06-04T20:15:41.944Z,97670.88
2023-06-04T20:25:45.071Z,97686.13
2023-06-04T20:35:47.892Z,97687.66
2023-06-04T20:45:52.003Z,97681.19
2023-06-04T20:55:55.974Z,97679.56
2023-06-04T21:05:59.189Z,97690.56
2023-06-04T21:16:02.593Z,97695.59
2023-06-04T21:26:05.563Z,97706.78
2023-06-04T21:36:09.147Z,97708.03
2023-06-04T21:46:11.889Z,97714.44
2023-06-04T21:56:14.447Z,97725.66
2023-06-04T22:06:17.036Z,97725.94
2023-06-04T22:16:19.881Z,97729.97
2023-06-04T22:26:36.903Z,97726.94
2023-06-04T22:36:42.513Z,97732.03
2023-06-04T22:46:45.440Z,97736.87
2023-06-04T22:56:48.333Z,97741.12
2023-06-04T23:06:51.363Z,97735.66
2023-06-04T23:16:57.395Z,97729.81
2023-06-04T23:26:59.941Z,97733.94
2023-06-04T23:37:02.638Z,97722.16
2023-06-04T23:47:05.509Z,97718.75
2023-06-04T23:57:08.663Z,97718.59
